Time;durP1;ratioP1;P1;durP2;ratioP2;P2;SDS_P1;SDS_P2;PMS_P1;PMS_P2;Temp;Humidity;BMP_temperature;BMP_pressure;BME280_temperature;BME280_humidity;BME280_pressure;Samples;Min_cycle;Max_cycle;Signal;HPM_P1;HPM_P2
2023/08/17 00:00:20;;;;;;;4.10;3.70;;;;;;;;;;5094303;28;20200;-78
2023/08/17 00:02:48;;;;;;;7.07;4.27;;;;;;;;;;5094035;28;20231;-78
2023/08/17 00:05:16;;;;;;;5.07;3.27;;;;;;;;;;5093209;28;20199;-78
2023/08/17 00:07:43;;;;;;;4.40;3.37;;;;;;;;;;5075932;28;20192;-78
2023/08/17 00:10:10;;;;;;;4.53;3.67;;;;;;;;;;5058788;28;20257;-79
2023/08/17 00:12:37;;;;;;;5.67;4.43;;;;;;;;;;5093594;28;20258;-78
2023/08/17 00:15:05;;;;;;;7.07;4.63;;;;;;;;;;5093184;28;20207;-78
2023/08/17 00:17:32;;;;;;;4.77;4.30;;;;;;;;;;5093033;28;20354;-78
2023/08/17 00:20:03;;;;;;;4.00;3.70;;;;;;;;;;5094073;28;20196;-78
2023/08/17 00:22:32;;;;;;;7.00;3.90;;;;;;;;;;5093125;28;20196;-78
2023/08/17 00:24:58;;;;;;;5.47;4.40;;;;;;;;;;5075729;28;20196;-78
2023/08/17 00:27:25;;;;;;;5.67;3.80;;;;;;;;;;5093649;28;20261;-78
2023/08/17 00:29:52;;;;;;;6.43;4.13;;;;;;;;;;5075210;28;20204;-79
2023/08/17 00:32:19;;;;;;;5.47;3.63;;;;;;;;;;5075156;28;20613;-78
2023/08/17 00:34:48;;;;;;;4.87;3.83;;;;;;;;;;5093058;28;20196;-78
2023/08/17 00:37:17;;;;;;;4.20;3.77;;;;;;;;;;5092802;28;20216;-78
2023/08/17 00:39:44;;;;;;;5.13;4.23;;;;;;;;;;5075555;28;20196;-78
2023/08/17 00:42:11;;;;;;;4.40;3.80;;;;;;;;;;5092438;28;20196;-78
2023/08/17 00:44:38;;;;;;;4.73;4.27;;;;;;;;;;5058266;28;20200;-78
2023/08/17 00:47:05;;;;;;;4.57;4.03;;;;;;;;;;5075218;28;20196;-78
2023/08/17 00:49:33;;;;;;;8.00;4.33;;;;;;;;;;5057959;28;20200;-78
2023/08/17 00:52:00;;;;;;;5.40;3.60;;;;;;;;;;5074687;28;20584;-78
2023/08/17 00:54:28;;;;;;;4.37;3.80;;;;;;;;;;5074799;28;20265;-78
2023/08/17 00:56:55;;;;;;;5.23;4.67;;;;;;;;;;5092459;28;20228;-78
2023/08/17 00:59:22;;;;;;;4.53;4.13;;;;;;;;;;5074407;28;20192;-78
2023/08/17 01:01:49;;;;;;;6.10;4.40;;;;;;;;;;5074489;28;20207;-78
2023/08/17 01:04:16;;;;;;;6.37;3.80;;;;;;;;;;5092388;28;20693;-79
2023/08/17 01:06:43;;;;;;;5.20;4.03;;;;;;;;;;5092458;28;20202;-78
2023/08/17 01:09:10;;;;;;;4.90;4.37;;;;;;;;;;5074517;28;20222;-79
2023/08/17 01:11:46;;;;;;;8.43;3.87;;;;;;;;;;5091904;28;20207;-79
2023/08/17 01:14:20;;;;;;;7.00;4.17;;;;;;;;;;5092184;28;20206;-79
2023/08/17 01:16:52;;;;;;;4.23;3.83;;;;;;;;;;5074090;28;20235;-78
2023/08/17 01:19:27;;;;;;;4.53;4.13;;;;;;;;;;5091849;28;20202;-79
2023/08/17 01:21:57;;;;;;;4.90;4.40;;;;;;;;;;5092088;28;20264;-78
2023/08/17 01:24:26;;;;;;;4.47;4.07;;;;;;;;;;5092262;28;20200;-79
2023/08/17 01:26:53;;;;;;;4.80;4.07;;;;;;;;;;5074099;28;20204;-78
2023/08/17 01:29:20;;;;;;;4.73;4.33;;;;;;;;;;5092192;28;20200;-79
2023/08/17 01:31:54;;;;;;;4.13;3.83;;;;;;;;;;5074244;28;20196;-79
2023/08/17 01:34:24;;;;;;;5.37;4.20;;;;;;;;;;5074128;28;20211;-79
2023/08/17 01:36:55;;;;;;;6.93;4.50;;;;;;;;;;5091824;28;20224;-79
2023/08/17 01:39:35;;;;;;;5.83;4.60;;;;;;;;;;5092238;28;20200;-79
2023/08/17 01:42:03;;;;;;;7.50;4.77;;;;;;;;;;5091836;28;20245;-78
2023/08/17 01:44:30;;;;;;;5.83;4.23;;;;;;;;;;5057366;28;20651;-78
2023/08/17 01:46:57;;;;;;;6.23;5.37;;;;;;;;;;5074341;28;20207;-79
2023/08/17 01:49:24;;;;;;;7.67;4.80;;;;;;;;;;5091671;28;20196;-79
2023/08/17 01:51:51;;;;;;;5.93;4.60;;;;;;;;;;5074065;28;20196;-79
2023/08/17 01:54:19;;;;;;;6.03;4.40;;;;;;;;;;5091499;28;20231;-78
2023/08/17 01:56:47;;;;;;;8.03;5.00;;;;;;;;;;5092215;28;20224;-79
2023/08/17 01:59:14;;;;;;;6.07;5.10;;;;;;;;;;5091753;28;20577;-79
2023/08/17 02:01:41;;;;;;;5.50;4.97;;;;;;;;;;5091440;28;20200;-79
2023/08/17 02:04:08;;;;;;;5.90;4.63;;;;;;;;;;5073668;28;20208;-79
2023/08/17 02:06:35;;;;;;;7.90;4.60;;;;;;;;;;5074680;28;20256;-79
2023/08/17 02:09:02;;;;;;;5.27;4.77;;;;;;;;;;5091584;28;20200;-78
2023/08/17 02:11:29;;;;;;;6.60;5.20;;;;;;;;;;5073827;28;20204;-78
2023/08/17 02:13:58;;;;;;;5.40;4.60;;;;;;;;;;5074348;28;20196;-79
2023/08/17 02:16:25;;;;;;;5.27;4.77;;;;;;;;;;5073714;28;20284;-79
2023/08/17 02:18:52;;;;;;;6.07;4.50;;;;;;;;;;5091614;28;20200;-79
2023/08/17 02:21:19;;;;;;;5.70;4.67;;;;;;;;;;5073283;28;20200;-79
2023/08/17 02:23:47;;;;;;;6.30;4.70;;;;;;;;;;5073349;28;20196;-79
2023/08/17 02:26:14;;;;;;;8.07;4.73;;;;;;;;;;5074296;28;20211;-79
2023/08/17 02:28:41;;;;;;;5.87;5.23;;;;;;;;;;5073865;28;20196;-79
2023/08/17 02:31:10;;;;;;;5.27;4.50;;;;;;;;;;5056855;28;20588;-79
2023/08/17 02:33:38;;;;;;;6.03;5.07;;;;;;;;;;5091771;28;20215;-79
2023/08/17 02:36:06;;;;;;;5.83;4.83;;;;;;;;;;5091215;28;20270;-79
2023/08/17 02:38:32;;;;;;;9.03;5.60;;;;;;;;;;5056865;28;20216;-79
2023/08/17 02:40:59;;;;;;;6.77;5.43;;;;;;;;;;5093116;28;20200;-78
2023/08/17 02:43:26;;;;;;;8.00;4.73;;;;;;;;;;5095034;28;20611;-79
2023/08/17 02:45:54;;;;;;;9.07;4.40;;;;;;;;;;5060463;28;20701;-79
2023/08/17 02:48:22;;;;;;;12.07;6.00;;;;;;;;;;5094847;28;20196;-79
2023/08/17 02:50:49;;;;;;;7.40;4.63;;;;;;;;;;5094791;28;20693;-79
2023/08/17 02:53:16;;;;;;;6.63;4.57;;;;;;;;;;5095103;28;20238;-79
2023/08/17 02:55:43;;;;;;;5.00;4.57;;;;;;;;;;5077068;28;20598;-79
2023/08/17 02:58:10;;;;;;;5.43;4.60;;;;;;;;;;5094718;28;20224;-79
2023/08/17 03:00:36;;;;;;;5.07;4.67;;;;;;;;;;5095715;28;20192;-79
2023/08/17 03:03:04;;;;;;;5.50;5.00;;;;;;;;;;5076785;28;20620;-79
2023/08/17 03:05:33;;;;;;;6.50;4.77;;;;;;;;;;5060266;28;20196;-79
2023/08/17 03:08:00;;;;;;;6.33;4.30;;;;;;;;;;5095056;28;20211;-79
2023/08/17 03:10:27;;;;;;;5.70;5.07;;;;;;;;;;5076450;28;20204;-79
2023/08/17 03:12:54;;;;;;;5.67;5.03;;;;;;;;;;5077087;28;20211;-78
2023/08/17 03:15:21;;;;;;;4.93;4.50;;;;;;;;;;5094281;28;20720;-79
2023/08/17 03:17:48;;;;;;;6.37;4.80;;;;;;;;;;5076218;28;20608;-79
2023/08/17 03:20:15;;;;;;;5.63;4.00;;;;;;;;;;5060198;28;20205;-78
2023/08/17 03:22:43;;;;;;;8.07;5.20;;;;;;;;;;5059928;28;20204;-78
2023/08/17 03:25:10;;;;;;;5.07;4.60;;;;;;;;;;5094202;28;20654;-78
2023/08/17 03:27:37;;;;;;;5.13;4.53;;;;;;;;;;5060290;28;20196;-78
2023/08/17 03:30:06;;;;;;;4.90;4.40;;;;;;;;;;5076126;28;20698;-78
2023/08/17 03:32:33;;;;;;;5.77;4.47;;;;;;;;;;5076081;28;20210;-79
2023/08/17 03:34:59;;;;;;;7.70;4.90;;;;;;;;;;5076342;28;20662;-78
2023/08/17 03:37:26;;;;;;;4.53;4.13;;;;;;;;;;5093758;28;20312;-79
2023/08/17 03:39:55;;;;;;;5.73;5.03;;;;;;;;;;5076208;28;20215;-79
2023/08/17 03:42:22;;;;;;;6.37;5.20;;;;;;;;;;5094397;28;20196;-78
2023/08/17 03:44:49;;;;;;;5.40;4.23;;;;;;;;;;5075855;28;20215;-78
2023/08/17 03:47:15;;;;;;;7.00;4.40;;;;;;;;;;5093897;28;20279;-78
2023/08/17 03:49:42;;;;;;;6.03;5.07;;;;;;;;;;5093907;28;20667;-78
2023/08/17 03:52:10;;;;;;;4.33;4.03;;;;;;;;;;5058932;28;20204;-78
2023/08/17 03:54:37;;;;;;;4.93;4.53;;;;;;;;;;5075582;28;20224;-78
2023/08/17 03:57:05;;;;;;;6.20;5.23;;;;;;;;;;5093622;28;20212;-77
2023/08/17 03:59:32;;;;;;;4.93;4.43;;;;;;;;;;5093857;28;20579;-79
2023/08/17 04:02:00;;;;;;;15.83;5.57;;;;;;;;;;5075704;28;20208;-78
2023/08/17 04:04:27;;;;;;;6.07;4.13;;;;;;;;;;5059128;28;20263;-78
2023/08/17 04:06:54;;;;;;;5.33;4.50;;;;;;;;;;5076252;28;20206;-78
2023/08/17 04:09:22;;;;;;;7.23;4.80;;;;;;;;;;5076359;28;20204;-78
2023/08/17 04:11:49;;;;;;;6.47;5.67;;;;;;;;;;5093358;28;20685;-78
2023/08/17 04:14:17;;;;;;;4.93;4.50;;;;;;;;;;5093644;28;20218;-78
2023/08/17 04:16:44;;;;;;;6.77;4.73;;;;;;;;;;5093980;28;20200;-78
2023/08/17 04:19:11;;;;;;;8.63;5.53;;;;;;;;;;5075590;28;20227;-78
2023/08/17 04:21:38;;;;;;;4.43;4.00;;;;;;;;;;5093337;28;20678;-78
2023/08/17 04:24:05;;;;;;;6.17;4.77;;;;;;;;;;5093152;28;20570;-78
2023/08/17 04:26:32;;;;;;;4.97;4.23;;;;;;;;;;5093338;28;20200;-82
2023/08/17 04:28:59;;;;;;;4.83;4.37;;;;;;;;;;5093370;28;20196;-82
2023/08/17 04:31:27;;;;;;;4.80;4.40;;;;;;;;;;5093281;28;20204;-82
2023/08/17 04:33:54;;;;;;;6.83;5.37;;;;;;;;;;5093802;28;20196;-82
2023/08/17 04:36:21;;;;;;;5.40;4.70;;;;;;;;;;5093112;28;20197;-81
2023/08/17 04:38:47;;;;;;;4.53;4.23;;;;;;;;;;5093302;28;20227;-85
2023/08/17 04:41:14;;;;;;;8.63;4.90;;;;;;;;;;5093386;28;20628;-84
2023/08/17 04:43:42;;;;;;;5.37;3.93;;;;;;;;;;5093387;28;20197;-79
2023/08/17 04:46:09;;;;;;;16.63;5.30;;;;;;;;;;5092920;28;20717;-80
2023/08/17 04:48:37;;;;;;;6.73;4.57;;;;;;;;;;5092776;28;20207;-79
2023/08/17 04:51:04;;;;;;;6.40;4.63;;;;;;;;;;5092877;28;20192;-80
2023/08/17 04:53:31;;;;;;;6.20;4.83;;;;;;;;;;5093273;28;20278;-80
2023/08/17 04:55:59;;;;;;;6.50;4.60;;;;;;;;;;5093481;28;20200;-80
2023/08/17 04:58:25;;;;;;;6.57;4.37;;;;;;;;;;5090612;28;20258;-81
2023/08/17 05:00:52;;;;;;;5.23;4.83;;;;;;;;;;5100667;28;20192;-80
2023/08/17 05:03:19;;;;;;;6.53;4.80;;;;;;;;;;5096550;28;20280;-80
2023/08/17 05:05:47;;;;;;;6.10;5.30;;;;;;;;;;5101845;28;20196;-80
2023/08/17 05:08:14;;;;;;;5.00;4.60;;;;;;;;;;5108654;28;20199;-80
2023/08/17 05:10:41;;;;;;;5.20;4.70;;;;;;;;;;5111311;28;20196;-80
2023/08/17 05:13:08;;;;;;;5.57;4.40;;;;;;;;;;5107531;28;20193;-80
2023/08/17 05:15:36;;;;;;;9.53;5.13;;;;;;;;;;5100189;28;20195;-80
2023/08/17 05:18:03;;;;;;;5.33;4.40;;;;;;;;;;5093288;28;20223;-80
2023/08/17 05:20:30;;;;;;;7.80;4.60;;;;;;;;;;5102511;28;20689;-80
2023/08/17 05:22:58;;;;;;;7.27;5.13;;;;;;;;;;5100641;28;20202;-80
2023/08/17 05:25:26;;;;;;;5.00;4.40;;;;;;;;;;5111470;28;20673;-80
2023/08/17 05:27:53;;;;;;;5.73;5.00;;;;;;;;;;5095278;28;20193;-80
2023/08/17 05:30:20;;;;;;;5.03;4.63;;;;;;;;;;5104039;28;20203;-80
2023/08/17 05:32:47;;;;;;;6.57;4.70;;;;;;;;;;5111782;28;20207;-80
2023/08/17 05:35:14;;;;;;;5.43;4.93;;;;;;;;;;5110733;28;20685;-80
2023/08/17 05:37:40;;;;;;;5.30;4.70;;;;;;;;;;5098005;28;20219;-80
2023/08/17 05:40:10;;;;;;;6.60;4.80;;;;;;;;;;5097503;28;20201;-80
2023/08/17 05:42:37;;;;;;;8.07;4.93;;;;;;;;;;5111223;28;20589;-80
2023/08/17 05:45:05;;;;;;;4.27;3.90;;;;;;;;;;5100976;28;20200;-80
2023/08/17 05:47:31;;;;;;;5.50;4.17;;;;;;;;;;5111728;28;20199;-80
2023/08/17 05:49:58;;;;;;;5.13;3.90;;;;;;;;;;5097670;28;20200;-79
2023/08/17 05:52:25;;;;;;;6.77;4.57;;;;;;;;;;5104321;28;20196;-80
2023/08/17 05:54:52;;;;;;;4.10;3.70;;;;;;;;;;5091207;28;20201;-80
2023/08/17 05:57:20;;;;;;;3.73;3.37;;;;;;;;;;5100029;28;20187;-80
2023/08/17 05:59:47;;;;;;;4.13;3.57;;;;;;;;;;5110001;28;20583;-80
2023/08/17 06:02:13;;;;;;;10.63;4.23;;;;;;;;;;5091501;28;20616;-80
2023/08/17 06:04:40;;;;;;;5.53;3.97;;;;;;;;;;5104325;28;20189;-80
2023/08/17 06:07:07;;;;;;;5.97;3.63;;;;;;;;;;5100421;28;20195;-80
2023/08/17 06:09:34;;;;;;;5.23;3.23;;;;;;;;;;5110862;28;20204;-80
2023/08/17 06:12:01;;;;;;;3.73;3.30;;;;;;;;;;5103333;28;20192;-79
2023/08/17 06:14:29;;;;;;;6.13;3.03;;;;;;;;;;5104716;28;20215;-80
2023/08/17 06:16:56;;;;;;;3.57;3.27;;;;;;;;;;5103816;28;20199;-80
2023/08/17 06:19:23;;;;;;;4.07;3.40;;;;;;;;;;5114806;28;20219;-80
2023/08/17 06:21:50;;;;;;;8.03;3.70;;;;;;;;;;5105872;28;20204;-79
2023/08/17 06:24:16;;;;;;;3.67;3.10;;;;;;;;;;5111778;28;20199;-79
2023/08/17 06:26:44;;;;;;;5.57;3.40;;;;;;;;;;5115055;28;20734;-80
2023/08/17 06:29:11;;;;;;;4.10;3.70;;;;;;;;;;5114477;28;20200;-80
2023/08/17 06:31:39;;;;;;;3.60;3.30;;;;;;;;;;5114910;28;20567;-79
2023/08/17 06:34:05;;;;;;;4.60;3.30;;;;;;;;;;5098447;28;20192;-80
2023/08/17 06:36:33;;;;;;;3.77;2.67;;;;;;;;;;5094682;28;20200;-80
2023/08/17 06:38:59;;;;;;;4.40;2.80;;;;;;;;;;5108015;28;20247;-79
2023/08/17 06:41:26;;;;;;;5.13;2.83;;;;;;;;;;5094351;28;20208;-79
2023/08/17 06:43:53;;;;;;;2.47;2.37;;;;;;;;;;5093856;28;20567;-80
2023/08/17 06:46:20;;;;;;;5.07;3.47;;;;;;;;;;5094683;28;20196;-79
2023/08/17 06:48:48;;;;;;;2.83;2.60;;;;;;;;;;5113118;28;20196;-80
2023/08/17 06:51:15;;;;;;;4.20;2.47;;;;;;;;;;5101577;28;20196;-80
2023/08/17 06:53:42;;;;;;;4.63;2.60;;;;;;;;;;5107366;28;20319;-79
2023/08/17 06:56:10;;;;;;;3.87;2.50;;;;;;;;;;5093913;28;20196;-79
2023/08/17 06:58:37;;;;;;;3.50;2.83;;;;;;;;;;5107827;28;20224;-79
2023/08/17 07:01:04;;;;;;;3.40;2.47;;;;;;;;;;5107506;28;20192;-80
2023/08/17 07:03:30;;;;;;;2.30;2.03;;;;;;;;;;5100311;28;20196;-79
2023/08/17 07:05:59;;;;;;;4.27;2.33;;;;;;;;;;5114319;28;20208;-79
2023/08/17 07:08:25;;;;;;;4.20;2.25;;;;;;;;;;5099966;28;20206;-79
2023/08/17 07:10:52;;;;;;;5.05;2.55;;;;;;;;;;5100493;28;20196;-79
2023/08/17 07:13:19;;;;;;;3.25;2.63;;;;;;;;;;5100496;28;20195;-79
2023/08/17 07:15:46;;;;;;;3.22;2.67;;;;;;;;;;5100007;28;20200;-81
2023/08/17 07:18:12;;;;;;;3.72;2.58;;;;;;;;;;5109444;28;20220;-79
2023/08/17 07:20:39;;;;;;;2.60;2.40;;;;;;;;;;5093699;28;20207;-79
2023/08/17 07:23:07;;;;;;;2.80;2.58;;;;;;;;;;5100363;28;20191;-80
2023/08/17 07:25:34;;;;;;;3.03;2.83;;;;;;;;;;5100266;28;20197;-79
2023/08/17 07:28:01;;;;;;;3.60;2.78;;;;;;;;;;5103994;28;20605;-79
2023/08/17 07:30:29;;;;;;;5.93;3.03;;;;;;;;;;5106949;28;20203;-79
2023/08/17 07:32:56;;;;;;;3.72;3.20;;;;;;;;;;5113880;28;20196;-79
2023/08/17 07:35:22;;;;;;;4.60;2.95;;;;;;;;;;5099310;28;20203;-79
2023/08/17 07:37:49;;;;;;;3.45;3.10;;;;;;;;;;5101139;28;20203;-79
2023/08/17 07:40:18;;;;;;;4.22;2.90;;;;;;;;;;5112917;28;20199;-79
2023/08/17 07:42:44;;;;;;;4.65;2.65;;;;;;;;;;5113257;28;20195;-79
2023/08/17 07:45:11;;;;;;;7.50;3.15;;;;;;;;;;5111076;28;20203;-80
2023/08/17 07:47:38;;;;;;;3.25;2.63;;;;;;;;;;5102023;28;20195;-80
2023/08/17 07:50:06;;;;;;;3.83;3.40;;;;;;;;;;5097861;28;20206;-79
2023/08/17 07:52:33;;;;;;;6.45;3.20;;;;;;;;;;5101250;28;20716;-79
2023/08/17 07:55:00;;;;;;;4.53;2.88;;;;;;;;;;5111729;28;20611;-79
2023/08/17 07:57:28;;;;;;;9.15;3.15;;;;;;;;;;5101985;28;20206;-79
2023/08/17 07:59:54;;;;;;;3.83;3.10;;;;;;;;;;5113079;28;20693;-79
2023/08/17 08:02:21;;;;;;;5.60;3.05;;;;;;;;;;5103229;28;20740;-79
2023/08/17 08:04:48;;;;;;;3.78;2.83;;;;;;;;;;5093618;28;20543;-79
2023/08/17 08:07:15;;;;;;;3.05;2.83;;;;;;;;;;5103430;28;20204;-80
2023/08/17 08:09:42;;;;;;;4.60;2.95;;;;;;;;;;5107914;28;20195;-79
2023/08/17 08:12:09;;;;;;;2.92;2.72;;;;;;;;;;5101578;28;20279;-80
2023/08/17 08:14:37;;;;;;;6.60;3.33;;;;;;;;;;5095774;28;20189;-79
2023/08/17 08:17:04;;;;;;;5.60;3.08;;;;;;;;;;5092767;28;20546;-79
2023/08/17 08:19:32;;;;;;;3.45;3.15;;;;;;;;;;5106193;28;20216;-79
2023/08/17 08:21:59;;;;;;;4.32;3.38;;;;;;;;;;5092686;28;20200;-79
2023/08/17 08:24:31;;;;;;;3.58;3.13;;;;;;;;;;5105487;28;20204;-81
2023/08/17 08:26:57;;;;;;;3.50;3.03;;;;;;;;;;5092418;28;20196;-79
2023/08/17 08:29:24;;;;;;;5.63;3.20;;;;;;;;;;5111809;28;20191;-79
2023/08/17 08:31:52;;;;;;;4.63;3.80;;;;;;;;;;5103661;28;20200;-79
2023/08/17 08:34:19;;;;;;;4.95;3.17;;;;;;;;;;5092051;28;20189;-79
2023/08/17 08:36:47;;;;;;;3.60;2.72;;;;;;;;;;5105898;28;20256;-79
2023/08/17 08:39:13;;;;;;;2.58;2.38;;;;;;;;;;5107536;28;20226;-80
2023/08/17 08:41:40;;;;;;;4.50;3.03;;;;;;;;;;5112344;28;20252;-80
2023/08/17 08:44:07;;;;;;;3.42;2.85;;;;;;;;;;5112639;28;20192;-80
2023/08/17 08:46:35;;;;;;;3.65;2.85;;;;;;;;;;5112196;28;20203;-80
2023/08/17 08:49:04;;;;;;;3.10;2.90;;;;;;;;;;5092398;28;20199;-80
2023/08/17 08:51:33;;;;;;;2.83;2.60;;;;;;;;;;5091881;28;20192;-81
2023/08/17 08:54:03;;;;;;;4.03;3.42;;;;;;;;;;5104569;28;20224;-79
2023/08/17 08:56:32;;;;;;;7.80;2.80;;;;;;;;;;5093511;28;20197;-79
2023/08/17 08:59:00;;;;;;;4.72;2.90;;;;;;;;;;5112258;28;20250;-79
2023/08/17 09:01:27;;;;;;;3.35;2.85;;;;;;;;;;5111767;28;20215;-79
2023/08/17 09:03:55;;;;;;;3.60;3.25;;;;;;;;;;5111865;28;20206;-80
2023/08/17 09:06:24;;;;;;;3.33;3.03;;;;;;;;;;5108954;28;20195;-79
2023/08/17 09:08:51;;;;;;;3.03;2.80;;;;;;;;;;5101904;28;20719;-79
2023/08/17 09:11:18;;;;;;;4.18;3.70;;;;;;;;;;5111607;28;20195;-80
2023/08/17 09:13:45;;;;;;;4.57;2.97;;;;;;;;;;5102356;28;20623;-79
2023/08/17 09:16:12;;;;;;;2.92;2.72;;;;;;;;;;5094788;28;20698;-80
2023/08/17 09:18:39;;;;;;;3.17;2.88;;;;;;;;;;5101083;28;20690;-80
2023/08/17 09:21:05;;;;;;;3.50;2.72;;;;;;;;;;5104267;28;20193;-80
2023/08/17 09:23:34;;;;;;;3.30;3.05;;;;;;;;;;5091147;28;20200;-79
2023/08/17 09:26:07;;;;;;;3.38;3.08;;;;;;;;;;5091542;28;20211;-79
2023/08/17 09:28:33;;;;;;;4.07;3.28;;;;;;;;;;5103756;28;20203;-79
2023/08/17 09:31:03;;;;;;;6.50;3.38;;;;;;;;;;5108986;28;20195;-79
2023/08/17 09:33:31;;;;;;;5.40;3.03;;;;;;;;;;5091556;28;20196;-79
2023/08/17 09:35:59;;;;;;;6.43;3.00;;;;;;;;;;5103947;28;20196;-80
2023/08/17 09:38:27;;;;;;;5.18;2.70;;;;;;;;;;5103283;28;20199;-79
2023/08/17 09:40:55;;;;;;;3.72;3.30;;;;;;;;;;5098197;28;20281;-79
2023/08/17 09:43:22;;;;;;;4.80;3.50;;;;;;;;;;5111472;28;20578;-80
2023/08/17 09:45:50;;;;;;;3.50;2.72;;;;;;;;;;5104360;28;20196;-80
2023/08/17 09:48:18;;;;;;;5.43;2.92;;;;;;;;;;5091177;28;20219;-80
2023/08/17 09:50:45;;;;;;;4.90;2.70;;;;;;;;;;5097600;28;20248;-80
2023/08/17 09:53:14;;;;;;;5.93;3.33;;;;;;;;;;5096711;28;20220;-80
2023/08/17 09:55:42;;;;;;;3.00;2.80;;;;;;;;;;5102972;28;20203;-79
2023/08/17 09:58:14;;;;;;;3.17;2.95;;;;;;;;;;5093096;28;20198;-80
2023/08/17 10:00:44;;;;;;;3.00;2.70;;;;;;;;;;5100718;28;20230;-81
2023/08/17 10:03:11;;;;;;;2.70;2.50;;;;;;;;;;5109286;28;20192;-79
2023/08/17 10:05:39;;;;;;;3.70;2.95;;;;;;;;;;5100369;28;20200;-80
2023/08/17 10:08:08;;;;;;;2.65;2.45;;;;;;;;;;5108986;28;20219;-80
2023/08/17 10:10:36;;;;;;;3.53;2.80;;;;;;;;;;5111471;28;20231;-81
2023/08/17 10:13:11;;;;;;;3.28;2.67;;;;;;;;;;5111425;28;20199;-82
2023/08/17 10:15:47;;;;;;;2.60;2.22;;;;;;;;;;5098213;28;20199;-80
2023/08/17 10:18:18;;;;;;;3.05;2.63;;;;;;;;;;5099275;28;20202;-80
2023/08/17 10:20:50;;;;;;;3.13;2.63;;;;;;;;;;5111464;28;20219;-80
2023/08/17 10:23:19;;;;;;;3.28;2.25;;;;;;;;;;5091643;28;20188;-80
2023/08/17 10:25:46;;;;;;;2.50;2.25;;;;;;;;;;5090810;28;20196;-79
2023/08/17 10:28:16;;;;;;;2.72;2.50;;;;;;;;;;5100321;28;20598;-80
2023/08/17 10:30:43;;;;;;;3.30;2.70;;;;;;;;;;5108574;28;20203;-80
2023/08/17 10:33:10;;;;;;;3.47;2.80;;;;;;;;;;5100829;28;20191;-81
2023/08/17 10:35:38;;;;;;;4.55;2.28;;;;;;;;;;5097850;28;20188;-79
2023/08/17 10:38:05;;;;;;;4.30;2.50;;;;;;;;;;5111023;28;20207;-79
2023/08/17 10:40:37;;;;;;;5.95;2.70;;;;;;;;;;5107596;28;20230;-79
2023/08/17 10:43:05;;;;;;;3.95;2.50;;;;;;;;;;5101565;28;20195;-80
2023/08/17 10:45:38;;;;;;;3.15;2.67;;;;;;;;;;5101354;28;20203;-79
2023/08/17 10:48:28;;;;;;;2.78;2.58;;;;;;;;;;5097835;28;20200;-81
2023/08/17 10:51:03;;;;;;;5.38;2.58;;;;;;;;;;5090205;28;20192;-80
2023/08/17 10:53:38;;;;;;;3.08;2.47;;;;;;;;;;5103565;28;20306;-79
2023/08/17 10:56:09;;;;;;;2.97;2.15;;;;;;;;;;5101790;28;20195;-80
2023/08/17 10:58:36;;;;;;;2.58;2.47;;;;;;;;;;5105366;28;20208;-81
2023/08/17 11:01:05;;;;;;;2.55;2.35;;;;;;;;;;5102377;28;20234;-79
2023/08/17 11:03:33;;;;;;;3.67;2.60;;;;;;;;;;5108619;28;20282;-80
2023/08/17 11:06:15;;;;;;;2.80;2.60;;;;;;;;;;5094064;28;20200;-80
2023/08/17 11:08:53;;;;;;;3.55;3.25;;;;;;;;;;5102122;28;20191;-81
2023/08/17 11:11:21;;;;;;;3.00;2.38;;;;;;;;;;5112039;28;20307;-79
2023/08/17 11:13:48;;;;;;;3.60;3.03;;;;;;;;;;5101537;28;20191;-80
2023/08/17 11:16:19;;;;;;;3.63;2.45;;;;;;;;;;5110305;28;20291;-80
2023/08/17 11:18:47;;;;;;;13.35;3.38;;;;;;;;;;5103104;28;20191;-80
2023/08/17 11:21:15;;;;;;;3.42;2.90;;;;;;;;;;5113553;28;20222;-80
2023/08/17 11:23:42;;;;;;;4.70;2.67;;;;;;;;;;5113699;28;20199;-80
2023/08/17 11:26:09;;;;;;;4.63;2.55;;;;;;;;;;5110797;28;20581;-81
2023/08/17 11:28:38;;;;;;;6.65;2.88;;;;;;;;;;5105891;28;20196;-80
2023/08/17 11:31:06;;;;;;;4.28;2.95;;;;;;;;;;5107952;28;20196;-80
2023/08/17 11:33:37;;;;;;;8.05;3.05;;;;;;;;;;5106480;28;20211;-80
2023/08/17 11:36:06;;;;;;;3.05;2.35;;;;;;;;;;5093399;28;20224;-80
2023/08/17 11:38:33;;;;;;;5.18;2.78;;;;;;;;;;5107418;28;20199;-80
2023/08/17 11:41:00;;;;;;;3.60;2.40;;;;;;;;;;5113633;28;20215;-80
2023/08/17 11:43:29;;;;;;;2.63;2.42;;;;;;;;;;5112039;28;20203;-80
2023/08/17 11:45:56;;;;;;;2.80;2.60;;;;;;;;;;5101124;28;20600;-80
2023/08/17 11:48:24;;;;;;;3.45;3.05;;;;;;;;;;5098299;28;20200;-80
2023/08/17 11:50:52;;;;;;;3.10;2.90;;;;;;;;;;5093176;28;20199;-80
2023/08/17 11:53:19;;;;;;;5.65;2.67;;;;;;;;;;5103883;28;20696;-80
2023/08/17 11:55:47;;;;;;;6.85;2.90;;;;;;;;;;5102002;28;20195;-80
2023/08/17 11:58:14;;;;;;;7.47;3.00;;;;;;;;;;5112971;28;20206;-81
2023/08/17 12:00:44;;;;;;;5.43;3.00;;;;;;;;;;5113373;28;20717;-80
2023/08/17 12:03:14;;;;;;;3.45;3.15;;;;;;;;;;5110262;28;20207;-80
2023/08/17 12:05:41;;;;;;;5.63;3.55;;;;;;;;;;5092934;28;20562;-80
2023/08/17 12:08:09;;;;;;;6.72;3.42;;;;;;;;;;5096137;28;20248;-80
2023/08/17 12:10:38;;;;;;;7.53;3.00;;;;;;;;;;5101649;28;20207;-80
2023/08/17 12:13:05;;;;;;;4.78;3.78;;;;;;;;;;5106009;28;20551;-80
2023/08/17 12:15:33;;;;;;;3.50;3.15;;;;;;;;;;5092791;28;20200;-79
2023/08/17 12:18:00;;;;;;;8.93;3.33;;;;;;;;;;5111487;28;20197;-80
2023/08/17 12:20:27;;;;;;;3.67;3.13;;;;;;;;;;5112862;28;20219;-80
2023/08/17 12:22:54;;;;;;;3.72;3.28;;;;;;;;;;5094236;28;20196;-80
2023/08/17 12:25:23;;;;;;;3.95;3.55;;;;;;;;;;5104336;28;20199;-79
2023/08/17 12:27:50;;;;;;;5.03;3.20;;;;;;;;;;5112926;28;20230;-80
2023/08/17 12:30:26;;;;;;;3.47;3.17;;;;;;;;;;5101209;28;20200;-80
2023/08/17 12:32:53;;;;;;;4.72;3.38;;;;;;;;;;5100117;28;20689;-80
2023/08/17 12:35:21;;;;;;;3.60;3.33;;;;;;;;;;5097458;28;20207;-80
2023/08/17 12:37:48;;;;;;;3.60;3.30;;;;;;;;;;5092225;28;20828;-80
2023/08/17 12:40:15;;;;;;;4.22;3.83;;;;;;;;;;5105138;28;20230;-81
2023/08/17 12:42:43;;;;;;;3.75;3.45;;;;;;;;;;5091911;28;20200;-80
2023/08/17 12:45:10;;;;;;;3.88;3.58;;;;;;;;;;5108395;28;20195;-80
2023/08/17 12:47:37;;;;;;;4.65;3.78;;;;;;;;;;5101325;28;20211;-80
2023/08/17 12:50:05;;;;;;;5.68;3.63;;;;;;;;;;5098670;28;20187;-79
2023/08/17 12:52:31;;;;;;;4.05;3.33;;;;;;;;;;5112367;28;20199;-80
2023/08/17 12:54:59;;;;;;;3.70;3.40;;;;;;;;;;5112151;28;20195;-80
2023/08/17 12:57:26;;;;;;;4.07;3.78;;;;;;;;;;5101388;28;20196;-80
2023/08/17 12:59:55;;;;;;;4.13;3.83;;;;;;;;;;5092236;28;20223;-80
2023/08/17 13:02:21;;;;;;;5.65;4.22;;;;;;;;;;5102976;28;20191;-81
2023/08/17 13:04:48;;;;;;;4.03;3.72;;;;;;;;;;5111861;28;20195;-80
2023/08/17 13:07:15;;;;;;;4.30;3.95;;;;;;;;;;5111529;28;20676;-80
2023/08/17 13:09:42;;;;;;;4.32;3.92;;;;;;;;;;5100254;28;20207;-83
2023/08/17 13:12:09;;;;;;;4.68;3.47;;;;;;;;;;5100871;28;20192;-80
2023/08/17 13:14:37;;;;;;;4.82;3.53;;;;;;;;;;5110276;28;20196;-80
2023/08/17 13:17:05;;;;;;;7.13;3.85;;;;;;;;;;5112335;28;20206;-80
2023/08/17 13:19:32;;;;;;;5.30;4.20;;;;;;;;;;5106363;28;20207;-80
2023/08/17 13:21:59;;;;;;;7.00;3.92;;;;;;;;;;5091457;28;20238;-80
2023/08/17 13:24:25;;;;;;;6.40;4.32;;;;;;;;;;5109291;28;20192;-79
2023/08/17 13:26:53;;;;;;;4.25;3.53;;;;;;;;;;5099862;28;20667;-80
2023/08/17 13:29:20;;;;;;;3.85;3.65;;;;;;;;;;5110095;28;20231;-80
2023/08/17 13:31:48;;;;;;;4.25;3.80;;;;;;;;;;5100472;28;20663;-82
2023/08/17 13:34:16;;;;;;;7.05;4.22;;;;;;;;;;5104015;28;20220;-80
2023/08/17 13:36:43;;;;;;;5.85;4.00;;;;;;;;;;5104437;28;20195;-80
2023/08/17 13:39:10;;;;;;;4.20;3.80;;;;;;;;;;5096188;28;20196;-80
2023/08/17 13:41:37;;;;;;;6.07;4.05;;;;;;;;;;5111536;28;20639;-79
2023/08/17 13:44:06;;;;;;;4.90;4.07;;;;;;;;;;5097598;28;20571;-80
2023/08/17 13:46:33;;;;;;;4.18;3.85;;;;;;;;;;5111419;28;20192;-80
2023/08/17 13:49:00;;;;;;;3.78;3.47;;;;;;;;;;5098302;28;20187;-80
2023/08/17 13:51:29;;;;;;;5.10;4.00;;;;;;;;;;5097165;28;20208;-79
2023/08/17 13:53:55;;;;;;;4.47;3.90;;;;;;;;;;5097369;28;20715;-80
2023/08/17 13:56:22;;;;;;;8.57;3.67;;;;;;;;;;5110326;28;20650;-80
2023/08/17 13:58:49;;;;;;;3.92;3.63;;;;;;;;;;5097333;28;20198;-80
2023/08/17 14:01:16;;;;;;;4.50;4.13;;;;;;;;;;5098383;28;20605;-81
2023/08/17 14:03:44;;;;;;;5.38;3.70;;;;;;;;;;5103445;28;20199;-80
2023/08/17 14:06:11;;;;;;;6.00;4.30;;;;;;;;;;5090489;28;20200;-80
2023/08/17 14:08:39;;;;;;;3.47;3.28;;;;;;;;;;5090594;28;20666;-80
2023/08/17 14:11:06;;;;;;;5.72;3.50;;;;;;;;;;5093359;28;20211;-80
2023/08/17 14:13:34;;;;;;;3.70;3.40;;;;;;;;;;5110879;28;20300;-79
2023/08/17 14:16:00;;;;;;;3.97;3.55;;;;;;;;;;5111866;28;20195;-80
2023/08/17 14:18:30;;;;;;;5.05;3.97;;;;;;;;;;5111898;28;20224;-80
2023/08/17 14:20:57;;;;;;;8.60;4.28;;;;;;;;;;5111799;28;20235;-79
2023/08/17 14:23:24;;;;;;;4.57;3.83;;;;;;;;;;5108523;28;20646;-80
2023/08/17 14:25:52;;;;;;;5.07;4.15;;;;;;;;;;5110831;28;20195;-80
2023/08/17 14:28:19;;;;;;;5.00;4.50;;;;;;;;;;5092284;28;20224;-80
2023/08/17 14:30:46;;;;;;;6.15;4.28;;;;;;;;;;5108752;28;20248;-79
2023/08/17 14:33:14;;;;;;;3.97;3.67;;;;;;;;;;5111964;28;20680;-80
2023/08/17 14:35:41;;;;;;;4.60;3.65;;;;;;;;;;5111891;28;20210;-79
2023/08/17 14:38:08;;;;;;;4.80;3.85;;;;;;;;;;5114992;28;20199;-80
2023/08/17 14:40:36;;;;;;;5.47;4.10;;;;;;;;;;5115862;28;20230;-79
2023/08/17 14:43:04;;;;;;;4.05;3.75;;;;;;;;;;5115950;28;20202;-79
2023/08/17 14:45:31;;;;;;;4.22;3.70;;;;;;;;;;5115895;28;20223;-80